createdAt,value
2022-10-05T00:01:40.376Z,7.65
2022-10-05T00:04:15.846Z,4.43
2022-10-05T00:06:47.220Z,3.47
2022-10-05T00:09:22.001Z,3.53
2022-10-05T00:11:54.562Z,4.72
2022-10-05T00:14:35.678Z,3.53
2022-10-05T00:17:06.479Z,4.20
2022-10-05T00:19:39.578Z,3.53
2022-10-05T00:22:15.845Z,2.67
2022-10-05T00:24:47.203Z,2.83
2022-10-05T00:27:22.817Z,2.90
2022-10-05T00:29:54.491Z,2.20
2022-10-05T00:32:25.024Z,3.42
2022-10-05T00:34:59.955Z,3.25
2022-10-05T00:37:28.791Z,2.88
2022-10-05T00:39:58.395Z,3.03
2022-10-05T00:42:40.760Z,3.78
2022-10-05T00:45:16.963Z,2.90
2022-10-05T00:47:57.391Z,4.25
2022-10-05T00:50:52.915Z,3.15
2022-10-05T00:53:38.363Z,2.83
2022-10-05T00:56:19.439Z,3.00
2022-10-05T00:59:00.264Z,3.65
2022-10-05T01:01:36.640Z,4.43
2022-10-05T01:04:19.112Z,1.25
2022-10-05T01:07:01.782Z,3.83
2022-10-05T01:09:42.071Z,3.60
2022-10-05T01:12:20.005Z,4.97
2022-10-05T01:14:57.462Z,3.88
2022-10-05T01:17:33.910Z,2.03
2022-10-05T01:20:25.241Z,2.15
2022-10-05T01:23:30.653Z,2.13
2022-10-05T01:26:19.656Z,3.28
2022-10-05T01:28:59.248Z,4.15
2022-10-05T01:31:37.085Z,2.88
2022-10-05T01:34:14.682Z,5.45
2022-10-05T01:36:58.575Z,4.60
2022-10-05T01:39:34.265Z,3.95
2022-10-05T01:42:13.529Z,3.50
2022-10-05T01:44:53.249Z,4.03
2022-10-05T01:47:30.282Z,3.03
2022-10-05T01:50:05.016Z,2.50
2022-10-05T01:52:45.356Z,2.55
2022-10-05T01:55:23.084Z,3.67
2022-10-05T01:58:05.012Z,3.47
2022-10-05T02:00:54.523Z,5.40
2022-10-05T02:03:29.523Z,3.22
2022-10-05T02:06:02.201Z,3.28
2022-10-05T02:08:38.553Z,3.72
2022-10-05T02:11:10.265Z,4.30
2022-10-05T02:13:44.954Z,2.63
2022-10-05T02:16:22.224Z,4.10
2022-10-05T02:18:55.936Z,2.42
2022-10-05T02:21:27.806Z,5.15
2022-10-05T02:24:02.141Z,3.50
2022-10-05T02:26:35.827Z,2.80
2022-10-05T02:29:09.865Z,3.97
2022-10-05T02:31:48.715Z,2.60
2022-10-05T02:34:30.870Z,2.45
2022-10-05T02:37:24.649Z,4.65
2022-10-05T02:40:10.848Z,4.32
2022-10-05T02:42:51.090Z,3.70
2022-10-05T02:45:29.106Z,3.95
2022-10-05T02:48:10.663Z,2.20
2022-10-05T02:50:45.116Z,3.58
2022-10-05T02:53:24.011Z,3.50
2022-10-05T02:56:08.982Z,2.50
2022-10-05T02:58:47.267Z,2.80
2022-10-05T03:01:24.655Z,3.17
2022-10-05T03:04:06.606Z,2.90
2022-10-05T03:06:43.287Z,5.63
2022-10-05T03:09:12.647Z,4.55
2022-10-05T03:11:53.100Z,4.55
2022-10-05T03:14:27.574Z,3.40
2022-10-05T03:17:07.846Z,3.28
2022-10-05T03:19:52.110Z,6.05
2022-10-05T03:22:31.813Z,4.10
2022-10-05T03:25:27.362Z,4.10
2022-10-05T03:28:06.606Z,4.70
2022-10-05T03:30:42.293Z,3.47
2022-10-05T03:33:18.534Z,3.95
2022-10-05T03:36:00.471Z,4.70
2022-10-05T03:38:43.754Z,4.63
2022-10-05T03:41:19.254Z,3.80
2022-10-05T03:44:30.199Z,5.85
2022-10-05T03:47:12.663Z,3.30
2022-10-05T03:50:04.358Z,4.65
2022-10-05T03:52:42.769Z,3.33
2022-10-05T03:55:22.545Z,3.63
2022-10-05T03:57:58.382Z,5.50
2022-10-05T04:00:30.610Z,3.15
2022-10-05T04:03:11.240Z,3.72
2022-10-05T04:05:51.579Z,3.55
2022-10-05T04:08:30.568Z,3.45
2022-10-05T04:11:06.462Z,5.20
2022-10-05T04:13:41.302Z,3.40
2022-10-05T04:16:15.576Z,3.80
2022-10-05T04:18:51.048Z,3.88
2022-10-05T04:21:23.945Z,3.55
2022-10-05T04:24:01.295Z,5.05
2022-10-05T04:26:37.078Z,3.85
2022-10-05T04:29:16.167Z,3.33
2022-10-05T04:32:09.961Z,3.53
2022-10-05T04:34:53.467Z,2.58
2022-10-05T04:37:30.376Z,2.90
2022-10-05T04:40:13.366Z,3.17
2022-10-05T04:42:52.929Z,4.00
2022-10-05T04:45:42.498Z,2.30
2022-10-05T04:48:44.722Z,3.50
2022-10-05T04:51:32.403Z,3.42
2022-10-05T04:54:12.847Z,4.10
2022-10-05T04:56:50.567Z,5.53
2022-10-05T04:59:50.118Z,2.63
2022-10-05T05:02:28.050Z,3.88
2022-10-05T05:05:22.097Z,4.50
2022-10-05T05:08:03.297Z,3.85
2022-10-05T05:10:56.683Z,4.35
2022-10-05T05:13:56.294Z,3.80
2022-10-05T05:16:34.180Z,5.78
2022-10-05T05:19:28.888Z,3.53
2022-10-05T05:22:04.183Z,3.47
2022-10-05T05:24:43.128Z,3.15
2022-10-05T05:27:31.694Z,3.05
2022-10-05T05:30:08.801Z,3.97
2022-10-05T05:32:46.925Z,4.07
2022-10-05T05:35:33.527Z,3.75
2022-10-05T05:38:11.714Z,4.57
2022-10-05T05:40:48.548Z,4.85
2022-10-05T05:43:25.826Z,3.85
2022-10-05T05:46:01.850Z,2.63
2022-10-05T05:48:38.266Z,3.17
2022-10-05T05:51:14.220Z,3.65
2022-10-05T05:53:46.082Z,3.13
2022-10-05T05:56:18.074Z,6.28
2022-10-05T05:58:52.036Z,1.92
2022-10-05T06:01:33.257Z,3.50
2022-10-05T06:04:10.870Z,2.78
2022-10-05T06:06:44.629Z,2.25
2022-10-05T06:09:21.697Z,3.42
2022-10-05T06:12:04.286Z,3.45
2022-10-05T06:14:38.751Z,3.42
2022-10-05T06:17:15.489Z,3.03
2022-10-05T06:19:45.674Z,3.95
2022-10-05T06:22:22.427Z,2.60
2022-10-05T06:25:05.456Z,3.95
2022-10-05T06:27:38.701Z,4.43
2022-10-05T06:30:13.539Z,3.60
2022-10-05T06:33:04.324Z,3.53
2022-10-05T06:35:46.700Z,2.38
2022-10-05T06:38:32.848Z,1.75
2022-10-05T06:41:13.491Z,2.50
2022-10-05T06:43:54.903Z,3.40
2022-10-05T06:47:01.354Z,2.53
2022-10-05T06:49:58.115Z,3.58
2022-10-05T06:52:55.356Z,4.43
2022-10-05T06:55:31.285Z,2.90
2022-10-05T06:58:18.136Z,1.73
2022-10-05T07:00:54.125Z,2.83
2022-10-05T07:03:42.192Z,2.97
2022-10-05T07:06:19.718Z,3.58
2022-10-05T07:09:01.403Z,1.70
2022-10-05T07:11:57.388Z,1.67
2022-10-05T07:14:44.458Z,2.42
2022-10-05T07:17:25.284Z,2.53
2022-10-05T07:20:03.886Z,1.88
2022-10-05T07:22:58.360Z,1.50
2022-10-05T07:25:34.406Z,1.48
2022-10-05T07:28:09.698Z,1.88
2022-10-05T07:30:47.530Z,1.55
2022-10-05T07:33:25.386Z,1.42
2022-10-05T07:36:21.534Z,2.28
2022-10-05T07:38:59.019Z,1.88
2022-10-05T07:41:37.395Z,2.00
2022-10-05T07:44:14.665Z,2.15
2022-10-05T07:46:54.454Z,1.85
2022-10-05T07:49:34.656Z,1.95
2022-10-05T07:52:07.653Z,2.42
2022-10-05T07:54:47.204Z,2.38
2022-10-05T07:57:25.882Z,2.97
2022-10-05T08:00:02.402Z,2.25
2022-10-05T08:02:49.466Z,1.98
2022-10-05T08:05:23.886Z,1.90
2022-10-05T08:07:58.079Z,1.80
2022-10-05T08:10:34.575Z,2.05
2022-10-05T08:13:12.762Z,1.70
2022-10-05T08:15:44.188Z,1.15
2022-10-05T08:18:20.775Z,1.55
2022-10-05T08:20:51.747Z,1.00
2022-10-05T08:23:25.326Z,1.13
2022-10-05T08:26:09.608Z,0.85
2022-10-05T08:28:40.860Z,1.92
2022-10-05T08:31:20.514Z,2.40
2022-10-05T08:34:00.012Z,1.70
2022-10-05T08:36:53.802Z,1.73
2022-10-05T08:39:25.475Z,1.98
2022-10-05T08:42:31.804Z,1.63
2022-10-05T08:45:35.284Z,2.60
2022-10-05T08:48:23.896Z,1.00
2022-10-05T08:51:28.435Z,1.10
2022-10-05T08:54:28.431Z,1.30
2022-10-05T08:57:16.248Z,1.23
2022-10-05T09:00:05.184Z,1.50
2022-10-05T09:02:55.576Z,1.48
2022-10-05T09:05:44.261Z,2.80
2022-10-05T09:08:45.201Z,1.13
2022-10-05T09:11:23.400Z,1.35
2022-10-05T09:14:21.919Z,1.65
2022-10-05T09:17:14.849Z,2.15
2022-10-05T09:20:02.669Z,1.58
2022-10-05T09:22:39.797Z,1.23
2022-10-05T09:25:24.524Z,1.83
2022-10-05T09:27:57.639Z,1.17
2022-10-05T09:30:43.699Z,1.02
2022-10-05T09:33:37.131Z,1.00
2022-10-05T09:36:39.329Z,1.25
2022-10-05T09:39:39.530Z,0.70
2022-10-05T09:42:38.445Z,1.30
2022-10-05T09:45:49.309Z,0.90
2022-10-05T09:48:55.514Z,0.80
2022-10-05T09:51:55.218Z,1.00
2022-10-05T09:55:03.191Z,1.40
2022-10-05T09:58:08.026Z,1.38
2022-10-05T10:01:09.188Z,0.95
2022-10-05T10:04:15.273Z,0.60
2022-10-05T10:07:17.541Z,0.75
2022-10-05T10:10:03.341Z,0.80
2022-10-05T10:12:46.665Z,0.68
2022-10-05T10:15:46.341Z,0.85
2022-10-05T10:18:38.586Z,0.85
2022-10-05T10:21:30.688Z,0.70
2022-10-05T10:24:14.877Z,0.70
2022-10-05T10:27:02.949Z,0.80
2022-10-05T10:29:56.620Z,0.77
2022-10-05T10:32:56.869Z,1.48
2022-10-05T10:35:36.071Z,2.00
2022-10-05T10:38:37.204Z,0.93
2022-10-05T10:41:47.771Z,1.00
2022-10-05T10:44:42.878Z,0.70
2022-10-05T10:47:45.937Z,0.35
2022-10-05T10:50:43.707Z,0.60
2022-10-05T10:53:36.832Z,0.40
2022-10-05T10:56:22.643Z,2.25
2022-10-05T10:59:17.922Z,0.50
2022-10-05T11:02:00.390Z,0.57
2022-10-05T11:05:07.788Z,0.77
2022-10-05T11:08:12.820Z,0.70
2022-10-05T11:11:11.019Z,0.95
2022-10-05T11:14:10.480Z,0.82
2022-10-05T11:17:20.858Z,1.10
2022-10-05T11:20:19.790Z,0.75
2022-10-05T11:23:02.046Z,0.73
2022-10-05T11:26:02.870Z,0.60
2022-10-05T11:29:12.980Z,0.85
2022-10-05T11:32:07.344Z,0.35
2022-10-05T11:35:04.870Z,0.68
2022-10-05T11:37:58.818Z,0.60
2022-10-05T11:41:06.914Z,0.50
2022-10-05T11:44:09.335Z,0.98
2022-10-05T11:46:48.868Z,0.52
2022-10-05T11:49:25.653Z,0.40
2022-10-05T11:52:06.575Z,0.65
2022-10-05T11:55:16.134Z,1.05
2022-10-05T11:57:56.110Z,0.95
2022-10-05T12:00:28.950Z,1.42
2022-10-05T12:03:39.287Z,1.00
2022-10-05T12:06:24.012Z,0.65
2022-10-05T12:09:06.681Z,0.57
2022-10-05T12:11:57.705Z,0.63
2022-10-05T12:14:33.647Z,0.50
2022-10-05T12:17:08.490Z,0.60
2022-10-05T12:19:41.567Z,0.43
2022-10-05T12:22:17.225Z,0.55
2022-10-05T12:25:16.223Z,0.95
2022-10-05T12:27:49.102Z,0.68
2022-10-05T12:30:26.017Z,0.52
2022-10-05T12:33:04.168Z,0.98
2022-10-05T12:35:54.513Z,0.82
2022-10-05T12:38:29.627Z,0.90
2022-10-05T12:41:08.451Z,1.00
2022-10-05T12:43:50.719Z,0.63
2022-10-05T12:46:29.396Z,0.77
2022-10-05T12:49:23.363Z,0.82
2022-10-05T12:51:59.710Z,1.23
2022-10-05T12:54:43.586Z,0.88
2022-10-05T12:57:20.135Z,0.77
2022-10-05T12:59:57.382Z,1.15
2022-10-05T13:02:35.629Z,1.38
2022-10-05T13:05:17.423Z,1.02
2022-10-05T13:08:01.170Z,1.17
2022-10-05T13:10:36.731Z,0.82
2022-10-05T13:13:33.752Z,0.82
2022-10-05T13:16:16.030Z,0.85
2022-10-05T13:18:57.814Z,1.58
2022-10-05T13:21:35.631Z,0.88
2022-10-05T13:24:09.965Z,1.27
2022-10-05T13:26:43.426Z,0.40
2022-10-05T13:29:22.598Z,0.65
2022-10-05T13:31:56.798Z,0.85
2022-10-05T13:34:35.018Z,0.50
2022-10-05T13:37:17.938Z,0.73
2022-10-05T13:39:59.651Z,1.83
2022-10-05T13:42:37.483Z,0.82
2022-10-05T13:45:15.161Z,0.73
2022-10-05T13:48:00.054Z,0.77
2022-10-05T13:50:33.541Z,0.80
2022-10-05T13:53:12.622Z,0.70
2022-10-05T13:55:47.704Z,0.75
2022-10-05T13:58:28.190Z,0.35
2022-10-05T14:01:01.714Z,0.93
2022-10-05T14:03:36.637Z,0.60
2022-10-05T14:06:13.707Z,1.08
2022-10-05T14:08:52.196Z,0.80
2022-10-05T14:11:32.320Z,0.80
2022-10-05T14:14:13.666Z,0.85
2022-10-05T14:16:50.856Z,1.23
2022-10-05T14:19:30.493Z,0.73
2022-10-05T14:22:03.177Z,0.57
2022-10-05T14:24:44.820Z,0.52
2022-10-05T14:27:22.241Z,2.05
2022-10-05T14:29:58.148Z,0.55
2022-10-05T14:32:30.890Z,1.60
2022-10-05T14:35:15.753Z,0.90
2022-10-05T14:37:53.444Z,0.73
2022-10-05T14:40:31.704Z,1.08
2022-10-05T14:43:03.821Z,1.05
2022-10-05T14:45:33.936Z,0.90
2022-10-05T14:48:12.641Z,1.20
2022-10-05T14:50:57.940Z,0.93
2022-10-05T14:53:38.101Z,1.35
2022-10-05T14:56:23.458Z,1.75
2022-10-05T14:59:32.042Z,0.95
2022-10-05T15:02:15.485Z,0.70
2022-10-05T15:04:53.561Z,1.30
2022-10-05T15:07:29.302Z,1.00
2022-10-05T15:10:08.238Z,1.13
2022-10-05T15:12:44.139Z,0.75
2022-10-05T15:15:25.597Z,0.90
2022-10-05T15:18:00.904Z,0.60
2022-10-05T15:20:38.804Z,2.42
2022-10-05T15:23:24.965Z,0.80
2022-10-05T15:26:06.318Z,2.03
2022-10-05T15:28:41.835Z,1.05
2022-10-05T15:31:22.678Z,1.70
2022-10-05T15:33:58.975Z,0.90
2022-10-05T15:36:37.392Z,2.28
2022-10-05T15:39:17.496Z,1.92
2022-10-05T15:42:00.874Z,0.88
2022-10-05T15:44:47.361Z,0.90
2022-10-05T15:47:24.513Z,0.93
2022-10-05T15:50:03.473Z,1.33
2022-10-05T15:52:39.329Z,0.90
2022-10-05T15:55:26.763Z,1.10
2022-10-05T15:58:10.276Z,1.42
2022-10-05T16:00:45.003Z,2.13
2022-10-05T16:03:24.622Z,1.92
2022-10-05T16:06:15.574Z,1.30
2022-10-05T16:09:07.159Z,1.98
2022-10-05T16:12:03.723Z,1.60
2022-10-05T16:14:49.521Z,1.45
2022-10-05T16:17:29.161Z,1.10
2022-10-05T16:20:14.756Z,1.42
2022-10-05T16:22:52.816Z,0.98
2022-10-05T16:25:24.718Z,1.48
2022-10-05T16:28:15.542Z,1.70
2022-10-05T16:30:59.006Z,1.58
2022-10-05T16:33:42.294Z,2.75
2022-10-05T16:36:22.935Z,1.10
2022-10-05T16:39:01.642Z,1.73
2022-10-05T16:41:35.956Z,1.38
2022-10-05T16:44:15.223Z,1.60
2022-10-05T16:46:52.005Z,0.75
2022-10-05T16:49:37.847Z,1.20
2022-10-05T16:52:10.980Z,2.17
2022-10-05T16:54:47.942Z,1.58
2022-10-05T16:57:22.864Z,1.55
2022-10-05T17:00:16.073Z,1.23
2022-10-05T17:03:06.138Z,1.23
2022-10-05T17:06:05.367Z,1.33
2022-10-05T17:09:10.627Z,1.70
2022-10-05T17:11:49.592Z,2.20
2022-10-05T17:14:41.000Z,1.90
2022-10-05T17:17:34.556Z,1.85
2022-10-05T17:20:33.094Z,1.92
2022-10-05T17:23:08.166Z,1.52
2022-10-05T17:25:45.672Z,1.67
2022-10-05T17:28:23.488Z,2.92
2022-10-05T17:31:10.002Z,1.63
2022-10-05T17:34:11.722Z,1.98
2022-10-05T17:36:45.761Z,1.17
2022-10-05T17:39:17.224Z,1.77
2022-10-05T17:41:47.001Z,1.90
2022-10-05T17:44:26.369Z,2.55
2022-10-05T17:46:57.492Z,1.95
2022-10-05T17:50:18.201Z,2.53
2022-10-05T17:53:38.741Z,2.40
2022-10-05T17:56:07.810Z,2.65
2022-10-05T17:59:06.816Z,2.63
2022-10-05T18:01:38.424Z,4.10
2022-10-05T18:04:33.760Z,2.30
2022-10-05T18:07:06.732Z,1.80
2022-10-05T18:09:50.905Z,2.08
2022-10-05T18:12:41.785Z,2.42
2022-10-05T18:15:50.397Z,2.20
2022-10-05T18:18:54.750Z,1.13
2022-10-05T18:21:36.053Z,2.45
2022-10-05T18:24:27.740Z,1.60
2022-10-05T18:27:29.900Z,1.80
2022-10-05T18:30:14.898Z,1.63
2022-10-05T18:33:14.970Z,2.05
2022-10-05T18:36:02.054Z,1.83
2022-10-05T18:38:45.563Z,2.40
2022-10-05T18:41:25.414Z,1.77
2022-10-05T18:44:06.765Z,1.48
2022-10-05T18:46:46.494Z,2.88
2022-10-05T18:49:34.803Z,3.53
2022-10-05T18:52:10.411Z,2.40
2022-10-05T18:54:51.355Z,1.30
2022-10-05T18:58:05.636Z,1.65
2022-10-05T19:00:53.317Z,1.58
2022-10-05T19:03:30.669Z,2.15
2022-10-05T19:06:13.469Z,2.22
2022-10-05T19:08:51.944Z,2.58
2022-10-05T19:11:25.939Z,2.92
2022-10-05T19:14:05.666Z,2.55
2022-10-05T19:16:55.822Z,3.63
2022-10-05T19:19:55.277Z,2.40
2022-10-05T19:22:37.083Z,1.60
2022-10-05T19:25:22.107Z,1.45
2022-10-05T19:28:04.138Z,2.28
2022-10-05T19:31:00.614Z,1.45
2022-10-05T19:33:38.961Z,1.83
2022-10-05T19:36:22.739Z,1.17
2022-10-05T19:39:02.013Z,1.95
2022-10-05T19:41:45.699Z,1.13
2022-10-05T19:44:21.349Z,0.80
2022-10-05T19:47:01.590Z,1.60
2022-10-05T19:49:38.525Z,1.40
2022-10-05T19:52:15.577Z,1.35
2022-10-05T19:54:45.570Z,0.85
2022-10-05T19:57:18.207Z,1.30
2022-10-05T19:59:48.549Z,1.02
2022-10-05T20:02:19.672Z,2.90
2022-10-05T20:04:49.871Z,1.10
2022-10-05T20:07:21.801Z,1.83
2022-10-05T20:09:58.130Z,0.73
2022-10-05T20:12:51.914Z,1.13
2022-10-05T20:15:40.506Z,1.00
2022-10-05T20:19:02.634Z,2.25
2022-10-05T20:21:49.119Z,1.30
2022-10-05T20:24:19.951Z,1.73
2022-10-05T20:27:16.109Z,2.15
2022-10-05T20:29:47.060Z,1.20
2022-10-05T20:32:18.145Z,1.40
2022-10-05T20:34:49.537Z,1.95
2022-10-05T20:37:20.244Z,2.13
2022-10-05T20:39:51.378Z,1.90
2022-10-05T20:42:23.984Z,1.70
2022-10-05T20:44:56.833Z,1.90
2022-10-05T20:47:26.369Z,2.08
2022-10-05T20:49:56.824Z,1.77
2022-10-05T20:52:25.762Z,1.80
2022-10-05T20:54:56.902Z,1.00
2022-10-05T20:57:26.741Z,1.70
2022-10-05T20:59:55.724Z,1.98
2022-10-05T21:02:24.810Z,1.15
2022-10-05T21:04:53.594Z,1.58
2022-10-05T21:07:25.541Z,1.50
2022-10-05T21:09:55.902Z,1.73
2022-10-05T21:12:24.686Z,1.52
2022-10-05T21:14:53.730Z,1.52
2022-10-05T21:17:22.566Z,1.40
2022-10-05T21:19:52.708Z,1.17
2022-10-05T21:22:22.288Z,1.60
2022-10-05T21:24:52.376Z,1.15
2022-10-05T21:27:21.115Z,1.05
2022-10-05T21:29:49.993Z,1.90
2022-10-05T21:32:19.794Z,1.50
2022-10-05T21:34:48.636Z,1.42
2022-10-05T21:37:18.295Z,1.75
2022-10-05T21:39:47.192Z,1.88
2022-10-05T21:42:17.618Z,0.95
2022-10-05T21:44:46.391Z,1.77
2022-10-05T21:47:15.403Z,1.35
2022-10-05T21:49:44.197Z,1.52
2022-10-05T21:52:13.188Z,1.00
2022-10-05T21:54:42.294Z,0.85
2022-10-05T21:57:13.584Z,1.25
2022-10-05T21:59:44.660Z,1.27
2022-10-05T22:02:13.539Z,1.10
2022-10-05T22:04:42.541Z,1.23
2022-10-05T22:07:18.535Z,1.25
2022-10-05T22:09:48.928Z,1.23
2022-10-05T22:12:19.882Z,0.77
2022-10-05T22:14:50.107Z,2.30
2022-10-05T22:17:24.511Z,1.70
2022-10-05T22:19:53.506Z,1.65
2022-10-05T22:22:22.322Z,1.42
2022-10-05T22:24:52.076Z,1.33
2022-10-05T22:27:22.520Z,1.75
2022-10-05T22:29:53.288Z,1.85
2022-10-05T22:32:22.256Z,1.30
2022-10-05T22:34:51.172Z,1.35
2022-10-05T22:37:20.133Z,1.63
2022-10-05T22:39:49.133Z,1.48
2022-10-05T22:42:18.130Z,1.83
2022-10-05T22:44:46.929Z,0.93
2022-10-05T22:47:17.216Z,1.50
2022-10-05T22:49:46.018Z,2.25
2022-10-05T22:52:15.025Z,1.60
2022-10-05T22:54:43.923Z,1.10
2022-10-05T22:57:12.726Z,1.40
2022-10-05T22:59:41.414Z,1.13
2022-10-05T23:02:10.405Z,0.63
2022-10-05T23:04:40.716Z,0.88
2022-10-05T23:07:09.597Z,1.30
2022-10-05T23:09:38.614Z,1.10
2022-10-05T23:12:07.593Z,1.13
2022-10-05T23:14:36.470Z,1.85
2022-10-05T23:17:05.437Z,0.80
2022-10-05T23:19:34.468Z,1.50
2022-10-05T23:22:04.707Z,1.23
2022-10-05T23:24:34.005Z,1.15
2022-10-05T23:27:02.789Z,1.55
2022-10-05T23:29:31.690Z,1.33
2022-10-05T23:32:00.560Z,0.60
2022-10-05T23:34:29.323Z,1.63
2022-10-05T23:36:58.437Z,1.10
2022-10-05T23:39:28.747Z,1.30
2022-10-05T23:41:57.664Z,1.17
2022-10-05T23:44:27.177Z,1.20
2022-10-05T23:46:55.941Z,1.15
2022-10-05T23:49:25.421Z,0.75
2022-10-05T23:51:54.320Z,1.83
2022-10-05T23:54:23.225Z,0.85
2022-10-05T23:56:53.521Z,1.55
2022-10-05T23:59:22.431Z,2.22
